Time;durP1;ratioP1;P1;durP2;ratioP2;P2;SDS_P1;SDS_P2;PMS_P1;PMS_P2;Temp;Humidity;BMP_temperature;BMP_pressure;BME280_temperature;BME280_humidity;BME280_pressure;Samples;Min_cycle;Max_cycle;Signal;HPM_P1;HPM_P2
2022/10/31 00:02:03;;;;;;;19.73;5.03;;;;;;;;;;5078345;28;20032;-76
2022/10/31 00:04:28;;;;;;;20.48;5.28;;;;;;;;;;5070911;28;20468;-76
2022/10/31 00:06:54;;;;;;;19.83;5.28;;;;;;;;;;5071900;28;20065;-76
2022/10/31 00:09:19;;;;;;;21.30;4.80;;;;;;;;;;5070643;28;20028;-76
2022/10/31 00:11:44;;;;;;;18.85;5.38;;;;;;;;;;5070512;28;20021;-76
2022/10/31 00:14:10;;;;;;;18.17;5.10;;;;;;;;;;5052818;28;20020;-76
2022/10/31 00:16:35;;;;;;;17.20;5.30;;;;;;;;;;5070773;28;20111;-76
2022/10/31 00:19:03;;;;;;;16.08;5.10;;;;;;;;;;5070456;28;20031;-76
2022/10/31 00:21:30;;;;;;;18.15;5.25;;;;;;;;;;5070539;28;20503;-76
2022/10/31 00:23:57;;;;;;;20.77;5.47;;;;;;;;;;5070813;28;20031;-76
2022/10/31 00:26:22;;;;;;;20.65;5.25;;;;;;;;;;5070706;28;20060;-77
2022/10/31 00:28:48;;;;;;;23.00;5.22;;;;;;;;;;5073694;28;20113;-76
2022/10/31 00:31:14;;;;;;;15.98;4.82;;;;;;;;;;5090701;28;20020;-76
2022/10/31 00:33:40;;;;;;;18.75;5.40;;;;;;;;;;5072449;28;20024;-76
2022/10/31 00:36:07;;;;;;;22.58;5.35;;;;;;;;;;5090118;28;20498;-76
2022/10/31 00:38:33;;;;;;;20.38;5.50;;;;;;;;;;5090312;28;20099;-76
2022/10/31 00:40:58;;;;;;;27.83;6.05;;;;;;;;;;5090908;28;20157;-76
2022/10/31 00:43:24;;;;;;;19.95;5.75;;;;;;;;;;5090236;28;20024;-76
2022/10/31 00:45:49;;;;;;;18.40;5.85;;;;;;;;;;5088947;28;20069;-76
2022/10/31 00:48:15;;;;;;;20.27;5.50;;;;;;;;;;5072145;28;20028;-76
2022/10/31 00:50:41;;;;;;;15.07;5.45;;;;;;;;;;5088813;28;20024;-76
2022/10/31 00:53:06;;;;;;;16.98;5.68;;;;;;;;;;5090145;28;20510;-76
2022/10/31 00:55:32;;;;;;;22.10;6.28;;;;;;;;;;5090254;28;20120;-76
2022/10/31 00:57:57;;;;;;;19.20;5.57;;;;;;;;;;5089987;28;20106;-76
2022/10/31 01:00:23;;;;;;;23.00;5.78;;;;;;;;;;5090404;28;20631;-75
2022/10/31 01:02:48;;;;;;;25.48;5.57;;;;;;;;;;5075270;28;20549;-76
2022/10/31 01:05:14;;;;;;;19.42;5.97;;;;;;;;;;5069979;28;20025;-75
2022/10/31 01:07:40;;;;;;;17.17;5.30;;;;;;;;;;5069914;28;20074;-75
2022/10/31 01:10:07;;;;;;;16.25;5.22;;;;;;;;;;5069997;28;20498;-77
2022/10/31 01:12:40;;;;;;;22.40;6.03;;;;;;;;;;5069445;28;20028;-77
2022/10/31 01:15:06;;;;;;;21.17;5.60;;;;;;;;;;5070937;28;20078;-76
2022/10/31 01:17:32;;;;;;;17.95;5.43;;;;;;;;;;5072067;28;20060;-76
2022/10/31 01:19:57;;;;;;;20.67;5.72;;;;;;;;;;5070142;28;20047;-77
2022/10/31 01:22:23;;;;;;;18.10;5.38;;;;;;;;;;5070020;28;20024;-76
2022/10/31 01:24:48;;;;;;;21.88;5.53;;;;;;;;;;5070134;28;20036;-77
2022/10/31 01:27:14;;;;;;;20.50;5.63;;;;;;;;;;5064479;28;20024;-77
2022/10/31 01:29:39;;;;;;;15.95;5.75;;;;;;;;;;5090104;28;20492;-77
2022/10/31 01:32:05;;;;;;;17.40;5.55;;;;;;;;;;5089725;28;20031;-77
2022/10/31 01:34:30;;;;;;;19.25;5.45;;;;;;;;;;5089614;28;20483;-77
2022/10/31 01:36:55;;;;;;;17.77;5.40;;;;;;;;;;5058180;28;20035;-77
2022/10/31 01:39:21;;;;;;;21.08;5.50;;;;;;;;;;5089587;28;20556;-78
2022/10/31 01:41:49;;;;;;;17.90;5.32;;;;;;;;;;5089392;28;20047;-77
2022/10/31 01:44:14;;;;;;;19.13;5.57;;;;;;;;;;5090943;28;20028;-77
2022/10/31 01:47:05;;;;;;;19.15;5.60;;;;;;;;;;5089838;28;20031;-76
2022/10/31 01:49:54;;;;;;;;;;;;;;;;;;5090482;28;20032;-76
2022/10/31 01:52:42;;;;;;;20.27;5.55;;;;;;;;;;5090410;28;19912;-75
2022/10/31 01:55:44;;;;;;;14.38;5.20;;;;;;;;;;5075939;28;20070;-75
2022/10/31 01:58:24;;;;;;;20.27;5.45;;;;;;;;;;5025818;28;20095;-75
2022/10/31 02:00:53;;;;;;;16.98;5.35;;;;;;;;;;5078675;28;20052;-78
2022/10/31 02:03:21;;;;;;;22.45;6.13;;;;;;;;;;5076046;28;20039;-78
2022/10/31 02:05:47;;;;;;;24.05;5.63;;;;;;;;;;5073448;28;20055;-78
2022/10/31 02:08:18;;;;;;;18.52;5.40;;;;;;;;;;5071848;28;20066;-76
2022/10/31 02:10:44;;;;;;;24.42;5.78;;;;;;;;;;5093568;28;20024;-77
2022/10/31 02:13:12;;;;;;;19.02;5.85;;;;;;;;;;5074963;28;20121;-77
2022/10/31 02:15:39;;;;;;;19.67;5.60;;;;;;;;;;5091857;28;20035;-77
2022/10/31 02:18:06;;;;;;;17.25;5.78;;;;;;;;;;5092858;28;20035;-77
2022/10/31 02:20:39;;;;;;;18.92;5.70;;;;;;;;;;5093192;28;20483;-77
2022/10/31 02:23:13;;;;;;;24.67;6.13;;;;;;;;;;5092667;28;20059;-77
2022/10/31 02:25:51;;;;;;;21.15;5.68;;;;;;;;;;5093218;28;20080;-77
2022/10/31 02:28:51;;;;;;;17.42;5.70;;;;;;;;;;5071467;28;20119;-77
2022/10/31 02:31:39;;;;;;;22.35;5.45;;;;;;;;;;5086876;28;20709;-77
2022/10/31 02:34:18;;;;;;;21.58;5.95;;;;;;;;;;5092714;28;20403;-77
2022/10/31 02:36:58;;;;;;;19.27;5.47;;;;;;;;;;5073600;28;20024;-77
2022/10/31 02:39:27;;;;;;;20.17;5.95;;;;;;;;;;5072190;28;20032;-76
2022/10/31 02:42:18;;;;;;;20.98;5.38;;;;;;;;;;5072788;28;20028;-77
2022/10/31 02:45:02;;;;;;;;;;;;;;;;;;5073081;28;20052;-76
2022/10/31 02:47:32;;;;;;;20.05;5.60;;;;;;;;;;5068275;28;19934;-77
2022/10/31 02:50:06;;;;;;;20.88;5.53;;;;;;;;;;5075016;28;20078;-77
2022/10/31 02:52:34;;;;;;;17.60;5.68;;;;;;;;;;5092235;28;20032;-77
2022/10/31 02:55:33;;;;;;;16.35;5.70;;;;;;;;;;5092696;28;20043;-77
2022/10/31 02:58:13;;;;;;;13.48;5.38;;;;;;;;;;5078308;28;20042;-77
2022/10/31 03:00:53;;;;;;;18.08;5.72;;;;;;;;;;5092164;28;20676;-76
2022/10/31 03:03:32;;;;;;;18.38;5.60;;;;;;;;;;5092275;28;20024;-77
2022/10/31 03:06:14;;;;;;;23.20;6.25;;;;;;;;;;5091668;28;20174;-77
2022/10/31 03:08:42;;;;;;;21.83;5.72;;;;;;;;;;5074079;28;20103;-77
2022/10/31 03:11:09;;;;;;;19.38;5.65;;;;;;;;;;5092435;28;20601;-77
2022/10/31 03:13:52;;;;;;;20.17;5.43;;;;;;;;;;5092020;28;20030;-77
2022/10/31 03:16:17;;;;;;;20.60;5.85;;;;;;;;;;5091148;28;20445;-77
2022/10/31 03:19:00;;;;;;;15.48;5.10;;;;;;;;;;5085899;28;20557;-77
2022/10/31 03:21:25;;;;;;;22.48;5.70;;;;;;;;;;5089027;28;20028;-78
2022/10/31 03:23:52;;;;;;;15.43;5.13;;;;;;;;;;5092173;28;20388;-78
2022/10/31 03:26:20;;;;;;;16.48;5.65;;;;;;;;;;5090912;28;20020;-77
2022/10/31 03:29:07;;;;;;;11.95;5.20;;;;;;;;;;5084285;28;20028;-78
2022/10/31 03:31:42;;;;;;;23.65;5.78;;;;;;;;;;5070550;28;20111;-78
2022/10/31 03:34:09;;;;;;;17.60;5.43;;;;;;;;;;5091545;28;20031;-79
2022/10/31 03:36:37;;;;;;;20.15;5.50;;;;;;;;;;5074095;28;20016;-78
2022/10/31 03:39:05;;;;;;;18.50;5.70;;;;;;;;;;5071412;28;20602;-78
2022/10/31 03:41:35;;;;;;;19.73;5.55;;;;;;;;;;5053338;28;20488;-78
2022/10/31 03:44:11;;;;;;;19.50;6.17;;;;;;;;;;5071086;28;20538;-78
2022/10/31 03:46:37;;;;;;;16.80;5.80;;;;;;;;;;5071313;28;20328;-78
2022/10/31 03:49:03;;;;;;;20.75;5.97;;;;;;;;;;5071017;28;20020;-78
2022/10/31 03:51:44;;;;;;;16.30;5.32;;;;;;;;;;5070976;28;20032;-77
2022/10/31 03:54:14;;;;;;;19.45;5.63;;;;;;;;;;5053515;28;20075;-78
2022/10/31 03:56:47;;;;;;;22.30;6.30;;;;;;;;;;5070854;28;20224;-78
2022/10/31 03:59:30;;;;;;;19.45;6.05;;;;;;;;;;5071107;28;20099;-78
2022/10/31 04:02:00;;;;;;;22.77;5.47;;;;;;;;;;5072556;28;20013;-77
2022/10/31 04:04:27;;;;;;;22.52;6.03;;;;;;;;;;5052670;28;20031;-78
2022/10/31 04:06:54;;;;;;;19.27;5.45;;;;;;;;;;5071060;28;20108;-78
2022/10/31 04:09:20;;;;;;;23.63;5.88;;;;;;;;;;5070434;28;20056;-78
2022/10/31 04:11:50;;;;;;;21.80;6.35;;;;;;;;;;5071435;28;20533;-78
2022/10/31 04:14:15;;;;;;;20.33;5.63;;;;;;;;;;5072299;28;20025;-78
2022/10/31 04:16:43;;;;;;;15.85;5.20;;;;;;;;;;5052505;28;20035;-79
2022/10/31 04:19:09;;;;;;;19.35;5.65;;;;;;;;;;5070528;28;20020;-78
2022/10/31 04:21:35;;;;;;;17.45;5.50;;;;;;;;;;5070636;28;20028;-78
2022/10/31 04:24:00;;;;;;;20.75;5.80;;;;;;;;;;5070413;28;20017;-78
2022/10/31 04:26:25;;;;;;;19.90;5.95;;;;;;;;;;5052706;28;20036;-79
2022/10/31 04:28:51;;;;;;;19.35;5.55;;;;;;;;;;5071112;28;20025;-78
2022/10/31 04:31:17;;;;;;;24.13;5.63;;;;;;;;;;5084571;28;20085;-77
2022/10/31 04:33:42;;;;;;;20.98;5.88;;;;;;;;;;5090896;28;20024;-77
2022/10/31 04:36:08;;;;;;;17.67;5.15;;;;;;;;;;5076990;28;20036;-78
2022/10/31 04:38:33;;;;;;;20.60;5.60;;;;;;;;;;5070274;28;20021;-79
2022/10/31 04:40:59;;;;;;;18.30;5.03;;;;;;;;;;5070219;28;20036;-77
2022/10/31 04:43:24;;;;;;;21.70;6.00;;;;;;;;;;5070270;28;20537;-79
2022/10/31 04:45:50;;;;;;;17.35;5.50;;;;;;;;;;5070303;28;20024;-78
2022/10/31 04:48:15;;;;;;;19.17;5.38;;;;;;;;;;5070221;28;20047;-78
2022/10/31 04:50:40;;;;;;;22.40;5.60;;;;;;;;;;5070228;28;20051;-78
2022/10/31 04:53:06;;;;;;;23.27;5.88;;;;;;;;;;5069872;28;20024;-78
2022/10/31 04:55:31;;;;;;;16.83;5.53;;;;;;;;;;5069721;28;20387;-78
2022/10/31 04:57:57;;;;;;;18.05;5.40;;;;;;;;;;5070031;28;20024;-78
2022/10/31 05:00:23;;;;;;;23.45;5.30;;;;;;;;;;5069833;28;20043;-78
2022/10/31 05:02:53;;;;;;;23.27;5.63;;;;;;;;;;5052132;28;20463;-78
2022/10/31 05:05:21;;;;;;;16.02;5.50;;;;;;;;;;5070204;28;20035;-78
2022/10/31 05:07:48;;;;;;;23.85;6.07;;;;;;;;;;5069826;28;20491;-78
2022/10/31 05:10:16;;;;;;;18.98;5.97;;;;;;;;;;5071839;28;20020;-78
2022/10/31 05:12:50;;;;;;;19.02;5.50;;;;;;;;;;5076612;28;20025;-79
2022/10/31 05:15:17;;;;;;;15.57;5.50;;;;;;;;;;5074711;28;20401;-78
2022/10/31 05:17:43;;;;;;;21.30;5.45;;;;;;;;;;5076710;28;20066;-78
2022/10/31 05:20:10;;;;;;;19.48;5.07;;;;;;;;;;5058871;28;20028;-78
2022/10/31 05:22:36;;;;;;;24.33;5.40;;;;;;;;;;5090007;28;20103;-78
2022/10/31 05:25:01;;;;;;;21.05;5.43;;;;;;;;;;5090246;28;20142;-78
2022/10/31 05:27:26;;;;;;;17.05;5.55;;;;;;;;;;5087932;28;20165;-79
2022/10/31 05:29:52;;;;;;;18.15;5.00;;;;;;;;;;5076120;28;20579;-78
2022/10/31 05:32:17;;;;;;;18.27;5.30;;;;;;;;;;5088493;28;20510;-78
2022/10/31 05:34:43;;;;;;;18.35;5.60;;;;;;;;;;5089199;28;20027;-78
2022/10/31 05:37:08;;;;;;;22.75;5.80;;;;;;;;;;5069817;28;20032;-78
2022/10/31 05:39:33;;;;;;;22.45;5.22;;;;;;;;;;5069660;28;20163;-78
2022/10/31 05:41:59;;;;;;;19.98;5.57;;;;;;;;;;5069650;28;20025;-79
2022/10/31 05:44:24;;;;;;;18.70;5.22;;;;;;;;;;5069478;28;20118;-78
2022/10/31 05:46:50;;;;;;;20.13;5.60;;;;;;;;;;5070037;28;20108;-78
2022/10/31 05:49:17;;;;;;;18.40;5.55;;;;;;;;;;5051272;28;20107;-78
2022/10/31 05:51:42;;;;;;;20.00;5.22;;;;;;;;;;5069275;28;20025;-78
2022/10/31 05:54:07;;;;;;;15.20;5.07;;;;;;;;;;5069444;28;20476;-78
2022/10/31 05:56:33;;;;;;;18.55;5.30;;;;;;;;;;5069145;28;20052;-78
2022/10/31 05:58:58;;;;;;;14.23;4.97;;;;;;;;;;5069415;28;20480;-79
2022/10/31 06:01:24;;;;;;;22.75;5.40;;;;;;;;;;5069466;28;20017;-78
2022/10/31 06:03:49;;;;;;;18.67;5.20;;;;;;;;;;5069095;28;20025;-78
2022/10/31 06:06:14;;;;;;;19.65;5.35;;;;;;;;;;5069277;28;20036;-78
2022/10/31 06:08:40;;;;;;;17.73;5.63;;;;;;;;;;5069438;28;20518;-78
2022/10/31 06:11:05;;;;;;;17.10;6.00;;;;;;;;;;5068730;28;20021;-78
2022/10/31 06:13:31;;;;;;;17.23;5.35;;;;;;;;;;5069184;28;20052;-78
2022/10/31 06:15:56;;;;;;;16.83;5.10;;;;;;;;;;5069365;28;20082;-78
2022/10/31 06:18:21;;;;;;;17.73;5.07;;;;;;;;;;5069639;28;20467;-78
2022/10/31 06:20:47;;;;;;;19.85;5.45;;;;;;;;;;5071905;28;20028;-78
2022/10/31 06:23:12;;;;;;;16.48;5.07;;;;;;;;;;5077442;28;20441;-78
2022/10/31 06:25:38;;;;;;;17.17;5.20;;;;;;;;;;5069212;28;20070;-78
2022/10/31 06:28:03;;;;;;;19.42;5.57;;;;;;;;;;5069422;28;20119;-78
2022/10/31 06:30:29;;;;;;;20.70;5.55;;;;;;;;;;5076622;28;20107;-77
2022/10/31 06:32:54;;;;;;;20.48;5.35;;;;;;;;;;5089120;28;20028;-78
2022/10/31 06:35:20;;;;;;;19.58;5.78;;;;;;;;;;5081172;28;20645;-79
2022/10/31 06:37:55;;;;;;;23.77;5.38;;;;;;;;;;5082679;28;20085;-78
2022/10/31 06:40:20;;;;;;;14.32;4.97;;;;;;;;;;5079930;28;20109;-79
2022/10/31 06:42:46;;;;;;;23.20;5.70;;;;;;;;;;5092719;28;20082;-79
2022/10/31 06:45:11;;;;;;;23.17;5.72;;;;;;;;;;5092648;28;20024;-78
2022/10/31 06:47:36;;;;;;;21.20;4.97;;;;;;;;;;5092542;28;20479;-78
2022/10/31 06:50:02;;;;;;;21.48;5.43;;;;;;;;;;5092636;28;20023;-79
2022/10/31 06:52:27;;;;;;;18.63;5.22;;;;;;;;;;5092592;28;20065;-80
2022/10/31 06:54:53;;;;;;;17.70;5.45;;;;;;;;;;5092192;28;20468;-81
2022/10/31 06:57:18;;;;;;;17.88;5.18;;;;;;;;;;5092451;28;20028;-80
2022/10/31 06:59:44;;;;;;;18.20;4.78;;;;;;;;;;5092709;28;20097;-80
2022/10/31 07:02:10;;;;;;;24.38;5.60;;;;;;;;;;5092650;28;20204;-80
2022/10/31 07:04:35;;;;;;;14.88;5.22;;;;;;;;;;5092672;28;20081;-80
2022/10/31 07:07:01;;;;;;;24.00;5.85;;;;;;;;;;5092776;28;20024;-81
2022/10/31 07:09:26;;;;;;;16.33;5.40;;;;;;;;;;5092443;28;20024;-77
2022/10/31 07:11:54;;;;;;;18.52;5.10;;;;;;;;;;5092465;28;20035;-79
2022/10/31 07:14:19;;;;;;;18.05;5.18;;;;;;;;;;5074539;28;20430;-79
2022/10/31 07:16:50;;;;;;;23.10;5.80;;;;;;;;;;5094413;28;20032;-84
2022/10/31 07:19:15;;;;;;;25.65;5.30;;;;;;;;;;5093191;28;20479;-82
2022/10/31 07:21:40;;;;;;;23.48;5.78;;;;;;;;;;5091159;28;20074;-77
2022/10/31 07:24:06;;;;;;;19.17;5.40;;;;;;;;;;5093341;28;20054;-79
2022/10/31 07:26:31;;;;;;;20.63;6.15;;;;;;;;;;5092923;28;20558;-75
2022/10/31 07:28:58;;;;;;;19.42;5.45;;;;;;;;;;5084860;28;20023;-75
2022/10/31 07:31:24;;;;;;;21.17;5.53;;;;;;;;;;5093087;28;20046;-77
2022/10/31 07:33:50;;;;;;;20.27;5.38;;;;;;;;;;5091577;28;20024;-78
2022/10/31 07:36:15;;;;;;;21.05;5.57;;;;;;;;;;5075841;28;20016;-79
2022/10/31 07:38:40;;;;;;;23.35;5.60;;;;;;;;;;5071847;28;20028;-78
2022/10/31 07:41:06;;;;;;;18.65;5.10;;;;;;;;;;5071473;28;20025;-77
2022/10/31 07:43:31;;;;;;;27.20;5.85;;;;;;;;;;5071373;28;20032;-79
2022/10/31 07:45:57;;;;;;;20.95;5.53;;;;;;;;;;5071558;28;20028;-75
2022/10/31 07:48:22;;;;;;;23.58;5.85;;;;;;;;;;5072183;28;21265;-80
2022/10/31 07:50:48;;;;;;;25.45;5.68;;;;;;;;;;5070320;28;20028;-77
2022/10/31 07:53:15;;;;;;;25.42;5.57;;;;;;;;;;5070921;28;20035;-78
2022/10/31 07:55:40;;;;;;;19.67;5.43;;;;;;;;;;5066411;28;20044;-78
2022/10/31 07:58:11;;;;;;;19.40;5.50;;;;;;;;;;5091335;28;20032;-80
2022/10/31 08:00:39;;;;;;;18.15;4.63;;;;;;;;;;5073489;28;20032;-78
2022/10/31 08:03:10;;;;;;;19.38;4.97;;;;;;;;;;5091447;28;20073;-79
2022/10/31 08:05:36;;;;;;;22.05;5.85;;;;;;;;;;5071311;28;20402;-84
2022/10/31 08:08:04;;;;;;;19.80;5.18;;;;;;;;;;5091532;28;20465;-80
2022/10/31 08:10:30;;;;;;;19.00;5.13;;;;;;;;;;5072932;28;20024;-79
2022/10/31 08:13:08;;;;;;;19.60;5.20;;;;;;;;;;5091769;28;20086;-77
2022/10/31 08:15:37;;;;;;;22.25;5.30;;;;;;;;;;5090901;28;20020;-75
2022/10/31 08:18:03;;;;;;;21.42;5.45;;;;;;;;;;5090568;28;20117;-76
2022/10/31 08:20:28;;;;;;;17.77;5.35;;;;;;;;;;5092353;28;20020;-76
2022/10/31 08:22:55;;;;;;;24.45;5.47;;;;;;;;;;5085574;28;20022;-74
2022/10/31 08:25:21;;;;;;;18.88;5.13;;;;;;;;;;5076848;28;20024;-75
2022/10/31 08:27:54;;;;;;;19.48;5.80;;;;;;;;;;5088027;28;20108;-76
2022/10/31 08:30:21;;;;;;;22.02;5.57;;;;;;;;;;5090735;28;20506;-76
2022/10/31 08:32:56;;;;;;;24.40;5.65;;;;;;;;;;5070286;28;20499;-75
2022/10/31 08:35:21;;;;;;;19.67;4.80;;;;;;;;;;5070682;28;20103;-77
2022/10/31 08:37:52;;;;;;;14.32;4.32;;;;;;;;;;5052169;28;20108;-77
2022/10/31 08:40:17;;;;;;;22.13;4.80;;;;;;;;;;5082317;28;20376;-73
2022/10/31 08:42:43;;;;;;;14.07;4.25;;;;;;;;;;5090160;28;20502;-74
2022/10/31 08:45:09;;;;;;;17.73;4.60;;;;;;;;;;5090258;28;20020;-75
2022/10/31 08:47:34;;;;;;;17.05;4.97;;;;;;;;;;5090536;28;20020;-73
2022/10/31 08:49:59;;;;;;;15.82;4.65;;;;;;;;;;5090554;28;20016;-74
2022/10/31 08:52:26;;;;;;;19.42;4.72;;;;;;;;;;5090221;28;20028;-82
2022/10/31 08:54:51;;;;;;;13.52;4.25;;;;;;;;;;5090653;28;20020;-79
2022/10/31 08:57:16;;;;;;;16.95;4.38;;;;;;;;;;5078105;28;20039;-80
2022/10/31 08:59:42;;;;;;;21.42;5.20;;;;;;;;;;5070436;28;20373;-75
2022/10/31 09:02:07;;;;;;;13.27;4.70;;;;;;;;;;5069054;28;20522;-76
2022/10/31 09:04:32;;;;;;;18.13;4.70;;;;;;;;;;5070310;28;20131;-77
2022/10/31 09:06:58;;;;;;;18.35;4.57;;;;;;;;;;5052372;28;20027;-79
2022/10/31 09:09:23;;;;;;;15.15;4.63;;;;;;;;;;5070657;28;20086;-77
2022/10/31 09:11:49;;;;;;;18.05;4.85;;;;;;;;;;5069578;28;20028;-77
2022/10/31 09:14:14;;;;;;;15.63;4.43;;;;;;;;;;5068958;28;20104;-75
2022/10/31 09:16:39;;;;;;;19.83;5.00;;;;;;;;;;5079305;28;20081;-76
2022/10/31 09:19:05;;;;;;;21.52;4.05;;;;;;;;;;5088399;28;20507;-75
2022/10/31 09:21:30;;;;;;;15.10;4.68;;;;;;;;;;5089590;28;20036;-75
2022/10/31 09:23:55;;;;;;;19.35;4.45;;;;;;;;;;5089768;28;20411;-77
2022/10/31 09:26:21;;;;;;;12.68;4.25;;;;;;;;;;5090048;28;20036;-75
2022/10/31 09:28:46;;;;;;;14.50;4.55;;;;;;;;;;5089386;28;20505;-79
2022/10/31 09:31:12;;;;;;;18.02;4.13;;;;;;;;;;5089325;28;20032;-77
2022/10/31 09:33:37;;;;;;;13.68;4.18;;;;;;;;;;5088411;28;20040;-80
2022/10/31 09:36:03;;;;;;;16.35;4.45;;;;;;;;;;5071477;28;20050;-77
2022/10/31 09:38:28;;;;;;;15.73;4.28;;;;;;;;;;5088035;28;20027;-76
2022/10/31 09:41:06;;;;;;;17.75;4.43;;;;;;;;;;5089586;28;20066;-82
2022/10/31 09:43:53;;;;;;;16.58;4.00;;;;;;;;;;5070288;28;20051;-78
2022/10/31 09:46:24;;;;;;;15.40;4.20;;;;;;;;;;5088404;28;20054;-78
2022/10/31 09:48:55;;;;;;;17.83;4.82;;;;;;;;;;5071467;28;20365;-73
2022/10/31 09:51:39;;;;;;;17.67;3.97;;;;;;;;;;5089597;28;20103;-76
2022/10/31 09:54:04;;;;;;;15.75;4.07;;;;;;;;;;5064099;28;20057;-74
2022/10/31 09:56:31;;;;;;;14.38;4.03;;;;;;;;;;5087591;28;20441;-74
2022/10/31 09:59:00;;;;;;;18.23;4.35;;;;;;;;;;5087745;28;20063;-74
2022/10/31 10:02:06;;;;;;;18.33;4.35;;;;;;;;;;5069722;28;20024;-74
2022/10/31 10:04:43;;;;;;;12.18;3.70;;;;;;;;;;4985100;28;20034;-73
2022/10/31 10:07:22;;;;;;;16.90;4.15;;;;;;;;;;4987493;28;20030;-76
2022/10/31 10:09:48;;;;;;;18.15;3.85;;;;;;;;;;5053002;28;20059;-79
2022/10/31 10:13:03;;;;;;;19.35;4.20;;;;;;;;;;5089017;28;20090;-76
2022/10/31 10:15:47;;;;;;;16.05;4.15;;;;;;;;;;5046867;28;20043;-83
2022/10/31 10:19:00;;;;;;;18.52;3.83;;;;;;;;;;5093126;28;20510;-86
2022/10/31 10:21:42;;;;;;;25.33;4.45;;;;;;;;;;5083889;28;20028;-77
2022/10/31 10:24:51;;;;;;;18.23;4.25;;;;;;;;;;5078067;28;20400;-74
2022/10/31 10:27:21;;;;;;;18.80;3.95;;;;;;;;;;5073031;28;20035;-75
2022/10/31 10:29:52;;;;;;;;;;;;;;;;;;5082371;28;20043;-75
2022/10/31 10:32:23;;;;;;;16.05;3.97;;;;;;;;;;5093103;28;19947;-75
2022/10/31 10:34:54;;;;;;;14.02;4.00;;;;;;;;;;5092937;28;20495;-74
2022/10/31 10:37:32;;;;;;;15.77;4.28;;;;;;;;;;5092227;28;20031;-75
2022/10/31 10:40:14;;;;;;;15.70;4.00;;;;;;;;;;5072863;28;20029;-76
2022/10/31 10:48:19;;;;;;;17.45;4.20;;;;;;;;;;5072853;28;20090;-73
2022/10/31 10:50:48;;;;;;;17.83;4.00;;;;;;;;;;5072712;28;20480;-75
2022/10/31 10:53:31;;;;;;;19.83;3.85;;;;;;;;;;5070255;28;20071;-74
2022/10/31 10:56:20;;;;;;;14.80;3.60;;;;;;;;;;5071550;28;20040;-73
2022/10/31 10:58:45;;;;;;;21.33;4.22;;;;;;;;;;5070823;28;20057;-79
2022/10/31 11:01:15;;;;;;;16.42;4.00;;;;;;;;;;5072778;28;20033;-79
2022/10/31 11:03:41;;;;;;;15.40;3.80;;;;;;;;;;5072068;28;20531;-78
2022/10/31 11:06:25;;;;;;;12.30;4.22;;;;;;;;;;5072522;28;20020;-77
2022/10/31 11:08:51;;;;;;;12.13;3.63;;;;;;;;;;5072016;28;20056;-76
2022/10/31 11:11:16;;;;;;;15.23;3.90;;;;;;;;;;5073220;28;20455;-77
2022/10/31 11:13:44;;;;;;;17.38;4.22;;;;;;;;;;5055213;28;20036;-77
2022/10/31 11:16:26;;;;;;;12.77;4.00;;;;;;;;;;5073525;28;20033;-80
2022/10/31 11:18:53;;;;;;;20.23;4.32;;;;;;;;;;5073096;28;20460;-76
2022/10/31 11:21:28;;;;;;;19.02;4.40;;;;;;;;;;5072952;28;20020;-76
2022/10/31 11:24:08;;;;;;;21.15;4.55;;;;;;;;;;5072444;28;20036;-77
2022/10/31 11:26:35;;;;;;;15.63;3.70;;;;;;;;;;5072246;28;20040;-76
2022/10/31 11:29:02;;;;;;;16.70;3.90;;;;;;;;;;5055930;28;20062;-75
2022/10/31 11:31:29;;;;;;;19.15;4.30;;;;;;;;;;5073516;28;20086;-76
2022/10/31 11:34:03;;;;;;;17.83;4.00;;;;;;;;;;5072444;28;20029;-79
2022/10/31 11:36:42;;;;;;;14.27;4.03;;;;;;;;;;5071957;28;20028;-77
2022/10/31 11:39:16;;;;;;;17.85;4.38;;;;;;;;;;5053572;28;20106;-77
2022/10/31 11:41:42;;;;;;;20.85;4.47;;;;;;;;;;5053437;28;20029;-78
2022/10/31 11:44:26;;;;;;;14.63;3.83;;;;;;;;;;5053544;28;20039;-74
2022/10/31 11:46:59;;;;;;;21.17;4.18;;;;;;;;;;5071468;28;20020;-74
2022/10/31 11:49:38;;;;;;;17.13;4.00;;;;;;;;;;5056325;28;20024;-74
2022/10/31 11:52:28;;;;;;;19.67;3.97;;;;;;;;;;5080192;28;20119;-74
2022/10/31 11:54:55;;;;;;;20.65;4.22;;;;;;;;;;5074980;28;20075;-74
2022/10/31 11:57:30;;;;;;;16.25;4.00;;;;;;;;;;5090190;28;20120;-74
2022/10/31 11:59:58;;;;;;;15.52;3.80;;;;;;;;;;5071104;28;20549;-74
2022/10/31 12:02:25;;;;;;;22.38;4.05;;;;;;;;;;5051978;28;20032;-76
2022/10/31 12:05:04;;;;;;;17.52;4.15;;;;;;;;;;5069885;28;20050;-77
2022/10/31 12:07:30;;;;;;;14.65;3.83;;;;;;;;;;5054395;28;20034;-77
2022/10/31 12:09:56;;;;;;;18.58;4.07;;;;;;;;;;5069397;28;20029;-80
2022/10/31 12:12:27;;;;;;;14.45;3.88;;;;;;;;;;5070999;28;20111;-79
2022/10/31 12:14:55;;;;;;;15.77;3.40;;;;;;;;;;5070982;28;20028;-78
2022/10/31 12:17:44;;;;;;;19.13;4.10;;;;;;;;;;5071099;28;20028;-79
2022/10/31 12:20:39;;;;;;;18.20;3.65;;;;;;;;;;5070826;28;20024;-77
2022/10/31 12:23:47;;;;;;;18.92;4.10;;;;;;;;;;5052944;28;20035;-79
2022/10/31 12:26:26;;;;;;;17.27;3.80;;;;;;;;;;5070813;28;20704;-78
2022/10/31 12:28:59;;;;;;;16.42;3.83;;;;;;;;;;5070867;28;20111;-76
2022/10/31 12:31:38;;;;;;;11.73;3.60;;;;;;;;;;5052735;28;20036;-75
2022/10/31 12:34:34;;;;;;;13.82;3.97;;;;;;;;;;5071091;28;20043;-76
2022/10/31 12:37:40;;;;;;;15.82;4.07;;;;;;;;;;5052469;28;20032;-74
2022/10/31 12:40:21;;;;;;;17.83;4.22;;;;;;;;;;5066240;28;20040;-74
2022/10/31 12:43:05;;;;;;;;;;;;;;;;;;5052652;28;20547;-75
2022/10/31 12:45:48;;;;;;;22.08;3.80;;;;;;;;;;5052280;28;19916;-74
2022/10/31 12:48:41;;;;;;;22.38;4.18;;;;;;;;;;5070571;28;20631;-74
2022/10/31 12:51:25;;;;;;;13.43;3.72;;;;;;;;;;5052092;28;20024;-74
2022/10/31 12:54:27;;;;;;;14.30;3.97;;;;;;;;;;5070019;28;20071;-79
2022/10/31 12:57:40;;;;;;;11.90;3.72;;;;;;;;;;5070044;28;20075;-74
2022/10/31 13:00:18;;;;;;;15.07;4.50;;;;;;;;;;4952855;28;20121;-83
2022/10/31 13:03:11;;;;;;;12.38;4.15;;;;;;;;;;5057157;28;20044;-83
2022/10/31 13:05:40;;;;;;;13.20;4.00;;;;;;;;;;5052045;28;20630;-82
2022/10/31 13:08:17;;;;;;;13.98;3.90;;;;;;;;;;5070197;28;20036;-74
2022/10/31 13:10:54;;;;;;;16.15;4.18;;;;;;;;;;5070150;28;20032;-75
2022/10/31 13:13:38;;;;;;;15.50;3.83;;;;;;;;;;5070186;28;20036;-75
2022/10/31 13:16:16;;;;;;;13.55;3.70;;;;;;;;;;5070415;28;20032;-76
2022/10/31 13:18:53;;;;;;;13.45;3.92;;;;;;;;;;5070899;28;20508;-76
2022/10/31 13:21:23;;;;;;;17.42;4.20;;;;;;;;;;5052119;28;20101;-75
2022/10/31 13:23:51;;;;;;;12.93;3.67;;;;;;;;;;5070132;28;20024;-77
2022/10/31 13:26:51;;;;;;;15.82;3.80;;;;;;;;;;5073078;28;20068;-75
2022/10/31 13:29:49;;;;;;;18.53;4.33;;;;;;;;;;5051788;28;20029;-75
2022/10/31 13:32:15;;;;;;;12.52;3.70;;;;;;;;;;5014205;28;20044;-77
2022/10/31 13:34:46;;;;;;;15.85;4.15;;;;;;;;;;5069784;28;20360;-76
2022/10/31 13:37:36;;;;;;;12.60;3.80;;;;;;;;;;5069917;28;20024;-76
2022/10/31 13:40:11;;;;;;;;;;;;;;;;;;5070304;28;20103;-76
2022/10/31 13:42:51;;;;;;;15.48;3.50;;;;;;;;;;5069709;28;19963;-77
2022/10/31 13:45:21;;;;;;;18.88;3.97;;;;;;;;;;5069920;28;20033;-75
2022/10/31 13:48:15;;;;;;;17.23;3.83;;;;;;;;;;5069764;28;20036;-76
2022/10/31 13:50:42;;;;;;;12.68;3.83;;;;;;;;;;5055660;28;20054;-76
2022/10/31 13:53:19;;;;;;;13.13;3.40;;;;;;;;;;5055651;28;20511;-76
2022/10/31 13:56:10;;;;;;;19.27;4.47;;;;;;;;;;5055368;28;20055;-76
2022/10/31 13:58:35;;;;;;;;;;;;;;;;;;5056119;28;20090;-76
2022/10/31 14:01:10;;;;;;;18.40;4.50;;;;;;;;;;5073503;28;19916;-77
2022/10/31 14:03:38;;;;;;;13.40;3.55;;;;;;;;;;5055305;28;20029;-76
2022/10/31 14:06:05;;;;;;;15.07;3.78;;;;;;;;;;5073272;28;20040;-74
2022/10/31 14:08:34;;;;;;;17.48;4.05;;;;;;;;;;5073575;28;20024;-75
2022/10/31 14:10:59;;;;;;;16.25;4.07;;;;;;;;;;5073225;28;20398;-73
2022/10/31 14:13:37;;;;;;;16.35;3.85;;;;;;;;;;5073143;28;20028;-75
2022/10/31 14:16:17;;;;;;;12.25;3.95;;;;;;;;;;5073303;28;20028;-76
2022/10/31 14:18:47;;;;;;;17.02;4.15;;;;;;;;;;5073156;28;20024;-76
2022/10/31 14:21:24;;;;;;;20.33;4.05;;;;;;;;;;5073079;28;20102;-73
2022/10/31 14:23:51;;;;;;;14.88;3.53;;;;;;;;;;5073891;28;20463;-74
2022/10/31 14:26:25;;;;;;;15.00;3.97;;;;;;;;;;5074749;28;20037;-73
2022/10/31 14:28:51;;;;;;;17.63;4.10;;;;;;;;;;5062781;28;20377;-73
2022/10/31 14:31:26;;;;;;;13.75;3.95;;;;;;;;;;5082551;28;20300;-75
2022/10/31 14:33:52;;;;;;;14.10;3.83;;;;;;;;;;5079104;28;20025;-79
2022/10/31 14:36:28;;;;;;;18.33;4.07;;;;;;;;;;5059808;28;20114;-81
2022/10/31 14:39:01;;;;;;;20.02;4.13;;;;;;;;;;5055025;28;20526;-76
2022/10/31 14:41:36;;;;;;;10.07;3.45;;;;;;;;;;5072644;28;20492;-78
2022/10/31 14:44:24;;;;;;;14.15;4.10;;;;;;;;;;5072735;28;20041;-78
2022/10/31 14:46:55;;;;;;;20.15;4.65;;;;;;;;;;5072690;28;20047;-79
2022/10/31 14:49:39;;;;;;;20.80;4.47;;;;;;;;;;5054882;28;20119;-82
2022/10/31 14:52:07;;;;;;;18.33;4.10;;;;;;;;;;5054481;28;20052;-78
2022/10/31 14:54:40;;;;;;;14.57;3.92;;;;;;;;;;5072348;28;20021;-83
2022/10/31 14:57:31;;;;;;;19.25;4.50;;;;;;;;;;5072207;28;20123;-77
2022/10/31 15:00:03;;;;;;;;;;;;;;;;;;5055077;28;20428;-77
2022/10/31 15:02:41;;;;;;;16.25;4.05;;;;;;;;;;5072158;28;19959;-77
2022/10/31 15:05:11;;;;;;;14.90;3.90;;;;;;;;;;5072533;28;20028;-75